Talkeetna, AK (99676)

4:57 PM AKST on January 19, 2017 (GMT -0900)
Talkeetna | | Change Station

Elev 358 ft 62.32 °N, 150.09 °W | Updated 4 minutes ago

Clear
Clear
-22 °F
Feels Like -36 °F
N
5
Wind Variable Wind from NE

Today
High -- | Low -- °F
--% Chance of Precip.
Yesterday
High -- | Low -- °F
Precip. -- in
Pressure 29.57 in
Visibility 10.0 miles
Clouds Clear
Windchill -36 °F
Dew Point -27 °F
Humidity 77%
Rainfall 0.00 in
Snow Depth Not available.
9:58 AM 4:24 PM
Waning Gibbous, 49% visible
METAR PATK 200153Z 04004KT 10SM CLR M30/M33 A2952 RMK AO2 SLP014 T13001328
Pressure 29.57 in
Visibility 10.0 miles
Clouds Clear
Windchill -36 °F
Dew Point -27 °F
Humidity 77%
Rainfall 0.00 in
Snow Depth Not available.
9:58 AM 4:24 PM
Waning Gibbous, 49% visible
METAR PATK 200153Z 04004KT 10SM CLR M30/M33 A2952 RMK AO2 SLP014 T13001328

Get Your Daily Forecast Email!

Thanks for signing up!

Be on the lookout for a verification email in your inbox.

You'll start receiving the daily forecast at 8 AM.

×

10-Day Weather Forecast

Almanac

Astronomy

Jan. 19, 2017 Rise Set
Actual Time
Civil Twilight
Nautical Twilight
Astronomical Twilight
Moon
Length of Visible Light
Length of Day
Tomorrow will be .
, % of the Moon is Illuminated

Today's Extremes

State Highs State Lows

Community

WunderPhotos

Upload Photos

1,962,540 photos uploaded!

WunderBlog® & News

Nearby

Air Quality

  Air Quality AQ Index Pollutant
Not available.

Snow Depth

Station Depth Elevation

Earthquake Activity

City Distance Mag. Time & Date
Minimum magnitude displayed is 2.5.

Coastal Water Temperatures

Place Temperature

Stations

Nearby Weather Stations

Station Location Temp. Windchill Dew Point Humidity Wind Precip. Elev Updated Type
                   

Watches & Warnings

There are currently no watches in effect.